Time;durP1;ratioP1;P1;durP2;ratioP2;P2;SDS_P1;SDS_P2;PMS_P1;PMS_P2;Temp;Humidity;BMP_temperature;BMP_pressure;BME280_temperature;BME280_humidity;BME280_pressure;Samples;Min_cycle;Max_cycle;Signal;HPM_P1;HPM_P2
2022/08/17 00:06:26;;;;;;;17.30;7.60;;;22.30;99.90;;;;;;5067972;28;20043;-50
2022/08/17 00:09:30;;;;;;;20.95;7.30;;;22.30;99.90;;;;;;5071027;28;20502;-49
2022/08/17 00:12:40;;;;;;;17.33;7.72;;;22.30;99.90;;;;;;5072596;28;20043;-45
2022/08/17 00:15:44;;;;;;;15.70;7.72;;;22.30;99.90;;;;;;5071759;28;20044;-47
2022/08/17 00:19:28;;;;;;;15.05;7.15;;;22.20;99.90;;;;;;5072360;28;20051;-48
2022/08/17 00:23:11;;;;;;;28.05;8.48;;;22.10;99.90;;;;;;5072638;28;20039;-46
2022/08/17 00:26:34;;;;;;;22.05;9.25;;;22.10;99.90;;;;;;5071614;28;20047;-48
2022/08/17 00:29:57;;;;;;;22.73;7.78;;;22.00;99.90;;;;;;5072053;28;20040;-46
2022/08/17 00:33:12;;;;;;;20.73;7.85;;;22.00;99.90;;;;;;5071875;28;20059;-45
2022/08/17 00:36:16;;;;;;;17.27;7.32;;;22.00;99.90;;;;;;5072137;28;20051;-51
2022/08/17 00:39:20;;;;;;;20.00;8.15;;;22.00;99.90;;;;;;5059185;28;20043;-48
2022/08/17 00:42:24;;;;;;;20.13;8.02;;;22.00;99.90;;;;;;5071934;28;20055;-50
2022/08/17 00:45:28;;;;;;;18.48;7.45;;;22.00;99.90;;;;;;5071404;28;20052;-46
2022/08/17 00:48:51;;;;;;;14.38;8.18;;;21.90;99.90;;;;;;5071819;28;20044;-46
2022/08/17 00:52:03;;;;;;;20.80;7.75;;;21.90;99.90;;;;;;5071484;28;20107;-47
2022/08/17 00:55:08;;;;;;;18.42;7.53;;;21.90;99.90;;;;;;5071333;28;20111;-46
2022/08/17 00:58:12;;;;;;;15.38;7.63;;;21.80;99.90;;;;;;5071601;28;20059;-48
2022/08/17 01:01:36;;;;;;;13.55;7.18;;;21.80;99.90;;;;;;5071618;28;20411;-46
2022/08/17 01:04:59;;;;;;;17.90;7.20;;;21.80;99.90;;;;;;5058531;28;20079;-47
2022/08/17 01:08:40;;;;;;;20.65;7.95;;;21.80;99.90;;;;;;5071875;28;20043;-48
2022/08/17 01:12:07;;;;;;;12.68;7.20;;;21.80;99.90;;;;;;5071304;28;20052;-46
2022/08/17 01:15:11;;;;;;;16.40;7.50;;;21.80;99.90;;;;;;5070908;28;20055;-48
2022/08/17 01:18:15;;;;;;;17.02;7.93;;;21.80;99.90;;;;;;5071379;28;20114;-51
2022/08/17 01:21:39;;;;;;;16.15;7.72;;;21.80;99.90;;;;;;5070546;28;20047;-48
2022/08/17 01:24:47;;;;;;;17.02;7.30;;;21.70;99.90;;;;;;5070308;28;20040;-45
2022/08/17 01:27:52;;;;;;;17.15;7.85;;;21.70;99.90;;;;;;5070708;28;20403;-46
2022/08/17 01:34:38;;;;;;;14.18;8.40;;;21.70;99.90;;;;;;5069535;28;20043;-48
2022/08/17 01:41:11;;;;;;;17.67;7.22;;;21.60;99.90;;;;;;5070882;28;20040;-49
2022/08/17 01:44:15;;;;;;;14.80;7.57;;;21.60;99.90;;;;;;5070321;28;20115;-48
2022/08/17 01:47:19;;;;;;;14.43;7.57;;;21.60;99.90;;;;;;5071077;28;20051;-46
2022/08/17 01:50:28;;;;;;;14.23;7.07;;;21.60;99.90;;;;;;5070762;28;20048;-46
2022/08/17 01:53:39;;;;;;;14.38;7.22;;;21.60;99.90;;;;;;5070564;28;20039;-47
2022/08/17 01:57:02;;;;;;;19.15;8.00;;;21.50;99.90;;;;;;5070786;28;20056;-51
2022/08/17 02:07:30;;;;;;;16.33;7.40;;;21.40;99.90;;;;;;5070195;28;20047;-47
2022/08/17 02:11:11;;;;;;;17.60;7.13;;;21.40;99.90;;;;;;5070035;28;20051;-48
2022/08/17 02:14:14;;;;;;;16.95;8.00;;;21.40;99.90;;;;;;5069540;28;20051;-46
2022/08/17 02:17:18;;;;;;;31.73;8.60;;;21.40;99.90;;;;;;5070104;28;20052;-51
2022/08/17 02:21:00;;;;;;;15.45;7.78;;;21.30;99.90;;;;;;5070197;28;20059;-47
2022/08/17 02:24:26;;;;;;;14.93;8.20;;;21.20;99.90;;;;;;5069475;28;20510;-47
2022/08/17 02:27:50;;;;;;;16.83;8.27;;;21.20;99.90;;;;;;5069637;28;20718;-46
2022/08/17 02:31:06;;;;;;;15.10;8.52;;;21.20;99.90;;;;;;5069965;28;20048;-46
2022/08/17 02:34:29;;;;;;;14.65;8.30;;;21.20;99.90;;;;;;5069842;28;20051;-46
2022/08/17 02:37:33;;;;;;;16.63;8.55;;;21.10;99.90;;;;;;5070008;28;20051;-48
2022/08/17 02:40:39;;;;;;;14.48;7.93;;;21.10;99.90;;;;;;5069690;28;20046;-48
2022/08/17 02:43:44;;;;;;;21.40;8.93;;;21.00;99.90;;;;;;5069682;28;20056;-48
2022/08/17 02:46:48;;;;;;;22.30;9.93;;;20.90;99.90;;;;;;5069390;28;20051;-50
2022/08/17 02:50:13;;;;;;;18.45;9.13;;;20.70;99.90;;;;;;5069423;28;20063;-47
2022/08/17 02:53:17;;;;;;;26.02;9.35;;;20.50;99.90;;;;;;5069696;28;20511;-46
2022/08/17 03:00:08;;;;;;;22.13;9.65;;;20.50;99.90;;;;;;5069738;28;20051;-46
2022/08/17 03:03:17;;;;;;;19.85;9.73;;;20.40;99.90;;;;;;5069856;28;20047;-50
2022/08/17 03:06:22;;;;;;;16.02;8.77;;;20.40;99.90;;;;;;5068994;28;20040;-48
2022/08/17 03:10:03;;;;;;;26.00;9.68;;;20.40;99.90;;;;;;5069602;28;20047;-46
2022/08/17 03:13:08;;;;;;;19.60;9.30;;;20.40;99.90;;;;;;5069775;28;20048;-48
2022/08/17 03:16:30;;;;;;;23.95;9.98;;;20.40;99.90;;;;;;5069225;28;20110;-47
2022/08/17 03:19:53;;;;;;;21.13;10.98;;;20.40;99.90;;;;;;5069288;28;20046;-48
2022/08/17 03:22:58;;;;;;;28.55;12.90;;;20.30;99.90;;;;;;5069707;28;20521;-46
2022/08/17 03:26:02;;;;;;;18.70;10.30;;;20.20;99.90;;;;;;5069186;28;20115;-46
2022/08/17 03:29:05;;;;;;;19.00;11.63;;;20.20;99.90;;;;;;5069421;28;20478;-48
2022/08/17 03:35:53;;;;;;;22.02;12.43;;;20.20;99.90;;;;;;5068763;28;20521;-47
2022/08/17 03:39:16;;;;;;;21.58;11.38;;;20.20;99.90;;;;;;5069356;28;20519;-46
2022/08/17 03:42:39;;;;;;;23.75;12.20;;;20.20;99.90;;;;;;5069153;28;20044;-46
2022/08/17 03:56:43;;;;;;;15.50;10.90;;;20.10;99.90;;;;;;5072844;28;20063;-46
2022/08/17 03:59:47;;;;;;;23.25;13.77;;;20.10;99.90;;;;;;5073224;28;20059;-50
2022/08/17 04:02:51;;;;;;;26.38;14.38;;;20.10;99.90;;;;;;5073280;28;20056;-48
2022/08/17 04:06:14;;;;;;;25.27;14.65;;;20.00;99.90;;;;;;5072101;28;20051;-45
2022/08/17 04:13:00;;;;;;;21.73;12.00;;;19.90;99.90;;;;;;5072667;28;20035;-46
2022/08/17 04:16:04;;;;;;;24.80;12.50;;;19.90;99.90;;;;;;5072108;28;20063;-47
2022/08/17 04:19:27;;;;;;;22.17;12.30;;;19.90;99.90;;;;;;5072599;28;20056;-47
2022/08/17 04:22:31;;;;;;;18.65;12.18;;;19.90;99.90;;;;;;5072748;28;20052;-50
2022/08/17 04:25:40;;;;;;;26.10;12.15;;;19.90;99.90;;;;;;5072052;28;20035;-51
2022/08/17 04:28:44;;;;;;;22.40;11.52;;;19.80;99.90;;;;;;5072297;28;20399;-48
2022/08/17 04:32:07;;;;;;;25.42;12.75;;;19.80;99.90;;;;;;5072118;28;20050;-51
2022/08/17 04:35:16;;;;;;;23.58;12.43;;;19.90;99.90;;;;;;5071746;28;20052;-53
2022/08/17 04:38:25;;;;;;;31.35;12.60;;;19.90;99.90;;;;;;5071497;28;20040;-49
2022/08/17 04:44:52;;;;;;;26.25;10.50;;;19.70;99.90;;;;;;5071703;28;20044;-50
2022/08/17 04:48:15;;;;;;;26.83;11.15;;;19.60;99.90;;;;;;5071754;28;20045;-50
2022/08/17 04:51:20;;;;;;;24.77;11.32;;;19.60;99.90;;;;;;5072163;28;20048;-46
2022/08/17 04:54:24;;;;;;;19.05;10.50;;;19.70;99.90;;;;;;5071838;28;20322;-52
2022/08/17 04:57:28;;;;;;;17.52;10.20;;;19.70;99.90;;;;;;5071725;28;20047;-51
2022/08/17 05:00:32;;;;;;;24.90;12.52;;;19.80;99.90;;;;;;5071953;28;20052;-50
2022/08/17 05:03:36;;;;;;;18.13;9.77;;;19.90;99.90;;;;;;5071844;28;20048;-51
2022/08/17 05:06:59;;;;;;;21.88;10.15;;;19.90;99.90;;;;;;5070880;28;20048;-50
2022/08/17 05:10:03;;;;;;;20.60;11.02;;;20.00;99.90;;;;;;5071215;28;20040;-50
2022/08/17 05:13:28;;;;;;;21.33;10.82;;;20.10;99.90;;;;;;5070968;28;20047;-52
2022/08/17 05:19:57;;;;;;;22.73;8.50;;;21.20;99.90;;;;;;5071146;28;20119;-51
2022/08/17 05:23:06;;;;;;;15.15;6.85;;;24.00;99.90;;;;;;5071307;28;20044;-52
2022/08/17 05:26:12;;;;;;;11.95;6.00;;;26.30;99.90;;;;;;5070649;28;20040;-53
2022/08/17 05:29:15;;;;;;;13.20;5.85;;;27.90;99.90;;;;;;5069862;28;20051;-51
2022/08/17 05:32:21;;;;;;;12.70;5.55;;;28.80;99.90;;;;;;5071119;28;20434;-46
2022/08/17 05:35:47;;;;;;;16.48;6.60;;;29.20;99.90;;;;;;5069566;22;20046;-53
2022/08/17 05:39:09;;;;;;;13.40;5.30;;;29.00;99.90;;;;;;4988312;28;20049;-52
2022/08/17 05:42:36;;;;;;;25.92;6.22;;;29.00;99.90;;;;;;4989028;28;20405;-54
2022/08/17 05:46:20;;;;;;;12.32;5.13;;;28.60;99.90;;;;;;4988523;28;20042;-54
2022/08/17 05:53:16;;;;;;;13.38;4.90;;;30.40;99.90;;;;;;4988418;28;20532;-54
2022/08/17 05:56:39;;;;;;;17.07;5.30;;;30.50;99.90;;;;;;4988237;28;20056;-53
2022/08/17 06:00:13;;;;;;;13.77;4.75;;;30.30;99.90;;;;;;4987059;28;20041;-53
2022/08/17 06:03:56;;;;;;;14.00;4.70;;;30.60;99.90;;;;;;4986552;28;20041;-54
2022/08/17 06:10:45;;;;;;;12.45;4.45;;;30.70;99.90;;;;;;4987849;28;20124;-52
2022/08/17 06:14:26;;;;;;;18.85;4.57;;;30.70;99.90;;;;;;4988380;28;20508;-54
2022/08/17 06:25:01;;;;;;;9.18;4.25;;;30.70;99.90;;;;;;4987677;28;20049;-54
2022/08/17 06:28:09;;;;;;;11.75;4.20;;;30.40;99.90;;;;;;4986710;28;20053;-53
2022/08/17 06:31:33;;;;;;;14.73;4.55;;;29.80;99.90;;;;;;4968778;28;20054;-53
2022/08/17 06:34:38;;;;;;;16.42;5.30;;;29.50;99.90;;;;;;4979169;28;20049;-54
2022/08/17 06:38:17;;;;;;;14.95;4.57;;;29.70;99.90;;;;;;4982242;28;20049;-54
2022/08/17 06:41:30;;;;;;;12.98;5.22;;;30.60;99.90;;;;;;4984346;28;20037;-55
2022/08/17 06:44:57;;;;;;;20.05;4.68;;;31.60;99.90;;;;;;4983831;28;20057;-56
2022/08/17 06:48:34;;;;;;;12.40;4.65;;;32.10;99.90;;;;;;4986594;28;20053;-54
2022/08/17 06:51:47;;;;;;;11.57;4.50;;;32.90;99.90;;;;;;4986115;28;20061;-54
2022/08/17 06:55:04;;;;;;;14.20;4.10;;;33.50;99.90;;;;;;4986307;28;20029;-54
2022/08/17 06:58:09;;;;;;;14.15;4.25;;;33.30;99.90;;;;;;4982791;28;20393;-56
2022/08/17 07:01:17;;;;;;;12.20;4.53;;;31.90;99.90;;;;;;4987207;28;20050;-53
2022/08/17 07:04:46;;;;;;;13.40;4.72;;;32.20;99.90;;;;;;4986859;28;20042;-57
2022/08/17 07:08:03;;;;;;;12.25;3.85;;;31.90;99.90;;;;;;4983699;28;20045;-56
2022/08/17 07:11:18;;;;;;;10.27;3.90;;;32.90;99.90;;;;;;4973283;28;20050;-55
2022/08/17 07:14:36;;;;;;;14.05;4.32;;;33.50;99.90;;;;;;4986424;28;20050;-56
2022/08/17 07:17:59;;;;;;;14.93;4.68;;;33.10;99.90;;;;;;4982277;28;20049;-53
2022/08/17 07:21:54;;;;;;;9.82;4.07;;;32.80;99.90;;;;;;4983401;28;20057;-56
2022/08/17 07:25:02;;;;;;;16.88;4.82;;;32.60;99.90;;;;;;4995071;28;20108;-54
2022/08/17 07:28:06;;;;;;;10.75;4.25;;;32.00;99.90;;;;;;5024232;28;20041;-55
2022/08/17 07:31:15;;;;;;;16.25;4.45;;;33.00;99.90;;;;;;5007137;28;20070;-55
2022/08/17 07:34:58;;;;;;;9.82;4.07;;;32.80;99.90;;;;;;5035068;28;20042;-54
2022/08/17 07:38:16;;;;;;;13.35;4.22;;;33.50;99.90;;;;;;5030994;28;20554;-56
2022/08/17 07:41:20;;;;;;;12.65;3.75;;;34.90;98.90;;;;;;5008164;28;20054;-58
2022/08/17 07:44:24;;;;;;;8.93;4.07;;;36.10;97.00;;;;;;5005186;28;20441;-52
2022/08/17 07:51:20;;;;;;;11.88;4.05;;;34.80;97.80;;;;;;4985808;28;22260;-57
2022/08/17 07:54:29;;;;;;;13.30;4.47;;;35.10;97.80;;;;;;5008801;28;20039;-53
2022/08/17 07:57:34;;;;;;;10.90;3.75;;;35.40;96.60;;;;;;5025501;28;20061;-54
2022/08/17 08:00:39;;;;;;;11.73;3.72;;;36.20;96.70;;;;;;4983907;28;20045;-55
2022/08/17 08:04:26;;;;;;;15.32;4.20;;;37.70;95.10;;;;;;4998994;28;20533;-53
2022/08/17 08:07:48;;;;;;;17.08;4.03;;;38.40;94.50;;;;;;4997031;28;20425;-57
2022/08/17 08:11:04;;;;;;;13.95;3.70;;;37.90;93.60;;;;;;4979953;28;20042;-57
2022/08/17 08:14:32;;;;;;;13.77;3.28;;;38.70;93.10;;;;;;4993984;28;20041;-58
2022/08/17 08:17:54;;;;;;;11.40;4.05;;;39.70;92.00;;;;;;5026062;28;20041;-54
2022/08/17 08:21:07;;;;;;;19.17;4.47;;;40.60;90.90;;;;;;4993214;28;20519;-53
2022/08/17 08:24:58;;;;;;;15.60;4.10;;;41.10;90.30;;;;;;4988405;28;20069;-57
2022/08/17 08:28:45;;;;;;;11.55;3.95;;;38.30;91.40;;;;;;5012717;28;20042;-54
2022/08/17 08:32:08;;;;;;;8.43;3.53;;;37.50;92.10;;;;;;5008792;28;20325;-57
2022/08/17 08:35:42;;;;;;;10.93;3.72;;;37.40;92.20;;;;;;5042021;28;20397;-56
2022/08/17 08:39:14;;;;;;;12.23;3.55;;;39.00;91.50;;;;;;5082379;28;20402;-55
2022/08/17 08:42:32;;;;;;;12.13;3.85;;;40.50;89.80;;;;;;4974607;28;20037;-54
2022/08/17 08:46:34;;;;;;;13.02;4.65;;;39.00;90.30;;;;;;5016409;28;20038;-52
2022/08/17 08:50:13;;;;;;;15.52;3.88;;;39.60;90.10;;;;;;5028758;28;20065;-55
2022/08/17 08:53:44;;;;;;;11.82;3.63;;;39.10;91.00;;;;;;5033548;28;20059;-52
2022/08/17 08:57:38;;;;;;;12.27;3.92;;;40.80;89.80;;;;;;4982710;28;20053;-55
2022/08/17 09:00:47;;;;;;;13.02;3.80;;;41.00;85.90;;;;;;5013352;28;20062;-57
2022/08/17 09:04:29;;;;;;;15.75;3.55;;;41.70;87.00;;;;;;4978278;28;20041;-56
2022/08/17 09:08:43;;;;;;;9.00;3.13;;;43.00;85.70;;;;;;4990073;28;20437;-56
2022/08/17 09:12:28;;;;;;;18.92;4.60;;;44.30;82.60;;;;;;4974162;28;20508;-55
2022/08/17 09:15:42;;;;;;;14.68;4.28;;;42.50;82.90;;;;;;5007997;28;20039;-55
2022/08/17 09:18:51;;;;;;;11.65;3.88;;;41.40;82.10;;;;;;5018456;28;20112;-52
2022/08/17 09:22:36;;;;;;;14.20;4.18;;;39.00;88.70;;;;;;4982722;28;20050;-57
2022/08/17 09:25:57;;;;;;;13.38;4.38;;;39.10;89.00;;;;;;5025245;28;20049;-56
2022/08/17 09:29:24;;;;;;;16.05;4.25;;;41.20;85.20;;;;;;4979649;28;20412;-56
2022/08/17 09:32:36;;;;;;;13.07;3.90;;;41.80;83.80;;;;;;4997122;28;20043;-58
2022/08/17 09:36:14;;;;;;;14.52;3.88;;;43.00;82.80;;;;;;5006835;28;20527;-54
2022/08/17 09:39:38;;;;;;;20.90;4.10;;;41.90;84.30;;;;;;4989386;28;20516;-56
2022/08/17 09:43:06;;;;;;;13.98;4.43;;;39.40;84.40;;;;;;5023171;28;20063;-54
2022/08/17 09:46:27;;;;;;;17.30;4.85;;;36.40;91.60;;;;;;5019976;28;20045;-53
2022/08/17 09:49:32;;;;;;;13.60;3.50;;;40.30;88.30;;;;;;5026516;28;20460;-52
2022/08/17 09:52:36;;;;;;;12.90;3.53;;;42.20;84.90;;;;;;5030422;28;20049;-53
2022/08/17 10:00:00;;;;;;;16.70;3.42;;;39.00;88.00;;;;;;4980995;28;20042;-53
2022/08/17 10:03:23;;;;;;;14.82;4.35;;;40.60;86.40;;;;;;5053636;28;20059;-53
2022/08/17 10:06:46;;;;;;;20.08;4.40;;;42.40;83.90;;;;;;5015280;28;20055;-54
2022/08/17 10:10:11;;;;;;;18.58;4.65;;;41.20;84.90;;;;;;5067342;28;20043;-53
2022/08/17 10:13:44;;;;;;;21.25;3.95;;;40.20;85.60;;;;;;4968387;28;20053;-56
2022/08/17 10:16:55;;;;;;;13.88;3.90;;;41.40;85.20;;;;;;4968087;28;20042;-55
2022/08/17 10:20:17;;;;;;;12.18;4.00;;;42.20;83.10;;;;;;4969530;28;20398;-56
2022/08/17 10:26:52;;;;;;;13.50;3.65;;;45.60;78.10;;;;;;4975789;28;20065;-57
2022/08/17 10:30:03;;;;;;;21.52;4.13;;;44.90;77.70;;;;;;4988037;28;20041;-56
2022/08/17 10:37:09;;;;;;;11.73;3.90;;;42.40;80.90;;;;;;4975445;28;20053;-58
2022/08/17 10:40:36;;;;;;;15.75;3.55;;;42.70;79.80;;;;;;4987905;28;20515;-57
2022/08/17 10:44:02;;;;;;;18.73;4.00;;;41.80;78.70;;;;;;4987860;28;20045;-55
2022/08/17 10:47:10;;;;;;;24.75;4.45;;;41.20;76.80;;;;;;4968261;28;20516;-56
2022/08/17 10:50:58;;;;;;;15.23;4.10;;;39.20;76.80;;;;;;4968418;28;20046;-56
2022/08/17 10:54:23;;;;;;;15.35;4.18;;;39.00;79.30;;;;;;4968770;28;20041;-56
2022/08/17 10:57:33;;;;;;;17.33;4.10;;;40.30;77.60;;;;;;4968027;28;20054;-54
2022/08/17 11:00:57;;;;;;;17.23;3.85;;;41.20;76.20;;;;;;4968295;28;20050;-58
2022/08/17 11:04:25;;;;;;;27.77;5.78;;;42.70;76.20;;;;;;4968182;28;20054;-58
2022/08/17 11:08:05;;;;;;;18.58;3.92;;;42.80;75.90;;;;;;4967543;28;20046;-58
2022/08/17 11:11:50;;;;;;;12.90;3.83;;;41.90;72.30;;;;;;4968112;28;20053;-57
2022/08/17 11:15:09;;;;;;;13.20;3.63;;;42.20;69.50;;;;;;4982348;28;20065;-57
2022/08/17 11:18:20;;;;;;;20.40;4.73;;;42.00;70.40;;;;;;4985694;28;20531;-57
2022/08/17 11:22:03;;;;;;;19.40;4.53;;;41.60;70.60;;;;;;4981771;28;20042;-58
2022/08/17 11:25:54;;;;;;;15.60;3.67;;;41.40;72.90;;;;;;4967646;28;20058;-57
2022/08/17 11:29:03;;;;;;;14.68;3.50;;;41.20;68.80;;;;;;4969239;28;20042;-58
2022/08/17 11:32:36;;;;;;;16.25;3.58;;;42.40;70.50;;;;;;4967254;28;20038;-57
2022/08/17 11:35:50;;;;;;;18.15;4.05;;;41.80;68.90;;;;;;4967954;28;20053;-57
2022/08/17 11:39:06;;;;;;;19.65;3.42;;;43.30;70.30;;;;;;4988587;22;20062;-51
2022/08/17 11:42:37;;;;;;;16.17;3.90;;;45.30;67.70;;;;;;4948464;28;20042;-51
2022/08/17 11:46:01;;;;;;;18.55;3.67;;;44.20;69.20;;;;;;5012603;28;20508;-49
2022/08/17 11:53:03;;;;;;;20.67;4.55;;;44.30;67.60;;;;;;4950738;28;20429;-50
2022/08/17 11:56:29;;;;;;;13.02;4.30;;;42.90;68.70;;;;;;4948332;28;20051;-52
2022/08/17 12:03:25;;;;;;;12.43;3.20;;;44.90;67.50;;;;;;4932809;28;20039;-50
2022/08/17 12:06:53;;;;;;;19.02;4.55;;;42.80;69.10;;;;;;4934730;29;20063;-52
2022/08/17 12:09:59;;;;;;;12.97;4.27;;;42.00;70.50;;;;;;4932859;29;20059;-51
2022/08/17 12:13:13;;;;;;;17.15;5.50;;;38.50;72.50;;;;;;4936897;28;20278;-48
2022/08/17 12:16:19;;;;;;;20.15;4.22;;;37.40;76.40;;;;;;4951112;29;20058;-49
2022/08/17 12:19:26;;;;;;;15.27;3.80;;;38.30;78.20;;;;;;4932559;28;20422;-47
2022/08/17 12:23:03;;;;;;;15.43;3.80;;;40.50;75.00;;;;;;4932628;28;20047;-48
2022/08/17 12:26:31;;;;;;;13.65;3.83;;;41.40;73.90;;;;;;4932074;28;20434;-52
2022/08/17 12:29:54;;;;;;;10.70;3.27;;;44.50;72.40;;;;;;4950179;28;20050;-52
2022/08/17 12:32:58;;;;;;;11.38;3.35;;;46.00;69.20;;;;;;4944773;28;20282;-50
2022/08/17 12:36:06;;;;;;;13.80;4.07;;;47.10;67.00;;;;;;4932118;28;20055;-52
2022/08/17 12:39:10;;;;;;;15.77;3.97;;;45.50;66.80;;;;;;4945572;28;20052;-47
2022/08/17 12:42:36;;;;;;;19.48;3.95;;;43.10;69.70;;;;;;4949555;28;20046;-51
2022/08/17 12:46:00;;;;;;;14.85;3.58;;;40.20;73.20;;;;;;4931734;28;20054;-47
2022/08/17 12:49:36;;;;;;;20.00;4.00;;;39.60;74.30;;;;;;4945303;28;20054;-52
2022/08/17 12:52:42;;;;;;;18.20;4.03;;;39.30;74.10;;;;;;4948646;29;20046;-51
2022/08/17 12:56:08;;;;;;;17.20;3.65;;;38.70;74.70;;;;;;4942959;29;20046;-51
2022/08/17 12:59:11;;;;;;;13.85;4.20;;;38.60;74.90;;;;;;4950810;29;20512;-47
2022/08/17 13:02:27;;;;;;;17.23;4.22;;;38.60;76.00;;;;;;4933669;29;20115;-52
2022/08/17 13:05:56;;;;;;;15.00;3.47;;;39.00;73.50;;;;;;4938405;28;20046;-47
2022/08/17 13:09:18;;;;;;;17.45;3.92;;;37.50;75.80;;;;;;4940815;28;20042;-50
2022/08/17 13:12:32;;;;;;;16.15;4.03;;;39.00;75.10;;;;;;4949276;28;20062;-47
2022/08/17 13:16:16;;;;;;;12.32;4.07;;;40.10;73.40;;;;;;4941372;28;21271;-49
2022/08/17 13:19:22;;;;;;;16.92;4.30;;;41.40;70.90;;;;;;4930722;28;20046;-51
2022/08/17 13:22:28;;;;;;;18.33;4.45;;;42.30;70.20;;;;;;4931421;28;20038;-49
2022/08/17 13:25:54;;;;;;;13.18;3.90;;;42.70;70.60;;;;;;4930697;28;20046;-50
2022/08/17 13:32:40;;;;;;;14.75;3.92;;;41.90;70.50;;;;;;4931718;29;20051;-50
2022/08/17 13:36:04;;;;;;;16.45;4.57;;;42.30;71.20;;;;;;4930814;28;20106;-51
2022/08/17 13:39:20;;;;;;;15.52;3.85;;;42.50;71.20;;;;;;4930591;29;20051;-51
2022/08/17 13:42:47;;;;;;;16.60;4.20;;;42.40;71.30;;;;;;4931012;28;20055;-48
2022/08/17 13:45:51;;;;;;;13.50;4.00;;;41.50;71.30;;;;;;4930562;28;20422;-47
2022/08/17 13:49:14;;;;;;;14.57;3.90;;;41.00;71.10;;;;;;4930830;29;20513;-50
2022/08/17 13:52:41;;;;;;;14.77;4.07;;;41.40;71.20;;;;;;4930796;29;20039;-49
2022/08/17 13:55:51;;;;;;;14.35;3.70;;;41.50;70.40;;;;;;4930225;28;20068;-51
2022/08/17 13:58:55;;;;;;;17.23;4.03;;;41.50;71.80;;;;;;4930437;28;20122;-49
2022/08/17 14:02:37;;;;;;;10.52;3.42;;;41.80;71.80;;;;;;4930890;28;20051;-51
2022/08/17 14:10:04;;;;;;;12.30;3.85;;;40.40;70.60;;;;;;4930551;29;20418;-51
2022/08/17 14:13:09;;;;;;;20.33;4.53;;;39.90;72.70;;;;;;4930300;28;20055;-48
2022/08/17 14:16:14;;;;;;;17.83;4.20;;;38.00;74.80;;;;;;4986744;28;20063;-45
2022/08/17 14:19:20;;;;;;;16.17;4.20;;;36.60;76.10;;;;;;4929894;29;20067;-45
2022/08/17 14:22:33;;;;;;;20.33;5.03;;;36.10;77.00;;;;;;4929259;28;20039;-45
2022/08/17 14:25:38;;;;;;;19.98;5.13;;;35.60;77.80;;;;;;4929519;28;20042;-50
2022/08/17 14:29:01;;;;;;;17.45;4.47;;;35.30;76.70;;;;;;4930152;28;20055;-45
2022/08/17 14:32:18;;;;;;;17.38;5.05;;;35.40;78.00;;;;;;4930328;28;20510;-45
2022/08/17 14:36:37;;;;;;;19.20;4.60;;;35.10;78.20;;;;;;4929777;28;20066;-49
2022/08/17 14:39:41;;;;;;;18.70;5.00;;;35.00;78.70;;;;;;4930349;28;20054;-50
2022/08/17 14:42:45;;;;;;;13.60;4.05;;;35.40;78.50;;;;;;4929315;28;20038;-46
2022/08/17 14:45:50;;;;;;;15.88;4.90;;;34.60;80.00;;;;;;4929735;28;20059;-50
2022/08/17 14:48:54;;;;;;;15.38;4.93;;;35.00;79.30;;;;;;4930280;28;20513;-46
2022/08/17 14:52:00;;;;;;;23.05;5.18;;;35.10;80.20;;;;;;4930146;29;20055;-45
2022/08/17 14:55:05;;;;;;;14.73;4.18;;;35.70;80.00;;;;;;4928573;28;20046;-45
2022/08/17 14:58:09;;;;;;;15.18;4.53;;;35.50;79.00;;;;;;4929884;28;20043;-46
2022/08/17 15:01:31;;;;;;;18.98;4.97;;;35.40;79.10;;;;;;4929628;29;20051;-47
2022/08/17 15:05:01;;;;;;;15.20;4.75;;;35.00;79.00;;;;;;4928946;29;20047;-45
2022/08/17 15:08:06;;;;;;;22.40;5.07;;;35.40;80.80;;;;;;4928276;28;20050;-46
2022/08/17 15:11:11;;;;;;;15.80;4.57;;;35.20;79.90;;;;;;4928945;28;20518;-48
2022/08/17 15:14:34;;;;;;;22.13;5.25;;;35.30;79.10;;;;;;4928015;28;20406;-48
2022/08/17 15:17:41;;;;;;;15.65;4.55;;;35.80;78.90;;;;;;4928647;29;20059;-49
2022/08/17 15:20:48;;;;;;;11.38;3.50;;;35.70;80.40;;;;;;4927932;28;20423;-50
2022/08/17 15:23:51;;;;;;;19.05;4.85;;;36.00;79.70;;;;;;4928719;28;20050;-46
2022/08/17 15:27:14;;;;;;;15.60;4.50;;;35.40;79.00;;;;;;4929245;28;20043;-48
2022/08/17 15:30:41;;;;;;;21.95;4.03;;;34.60;80.40;;;;;;4929862;29;20043;-50
2022/08/17 15:33:45;;;;;;;17.60;4.85;;;34.90;80.80;;;;;;4929522;29;20055;-45
2022/08/17 15:36:49;;;;;;;20.23;4.57;;;34.60;81.60;;;;;;4929445;28;20386;-48
2022/08/17 15:39:54;;;;;;;18.45;4.78;;;35.00;82.00;;;;;;4930680;29;20050;-48
2022/08/17 15:43:22;;;;;;;19.52;5.13;;;35.30;79.80;;;;;;4932911;29;20063;-45
2022/08/17 15:46:45;;;;;;;20.02;5.70;;;34.90;79.50;;;;;;4932976;28;20059;-46
2022/08/17 15:49:49;;;;;;;13.30;4.72;;;35.20;79.90;;;;;;4932591;28;20395;-45
2022/08/17 15:53:12;;;;;;;15.88;4.10;;;35.30;79.20;;;;;;4932495;28;20066;-49
2022/08/17 15:56:17;;;;;;;14.98;4.90;;;35.10;81.00;;;;;;4932415;28;20043;-48
2022/08/17 15:59:21;;;;;;;15.10;4.45;;;34.60;81.00;;;;;;4932518;29;20521;-46
2022/08/17 16:02:29;;;;;;;17.98;4.68;;;34.50;81.20;;;;;;4932474;28;20047;-46
2022/08/17 16:05:34;;;;;;;17.98;5.07;;;34.30;82.10;;;;;;4932286;28;20047;-46
2022/08/17 16:09:17;;;;;;;21.23;5.45;;;34.20;81.50;;;;;;4932428;29;20043;-45
2022/08/17 16:12:21;;;;;;;14.60;5.32;;;33.80;82.30;;;;;;4931862;28;20067;-48
2022/08/17 16:15:48;;;;;;;15.00;5.40;;;33.60;83.00;;;;;;4931531;28;20434;-46
2022/08/17 16:18:53;;;;;;;16.70;4.95;;;33.30;82.70;;;;;;4930980;28;20047;-51
2022/08/17 16:21:57;;;;;;;19.13;5.28;;;33.30;83.30;;;;;;4932239;29;20059;-48
2022/08/17 16:25:09;;;;;;;18.52;4.60;;;33.60;84.20;;;;;;4931140;29;20047;-48
2022/08/17 16:28:15;;;;;;;19.15;5.03;;;33.80;83.90;;;;;;4931264;28;20051;-46
2022/08/17 16:35:04;;;;;;;16.77;4.40;;;33.80;83.90;;;;;;4932215;29;20050;-45
2022/08/17 16:38:26;;;;;;;20.83;4.72;;;33.80;84.80;;;;;;4931373;28;20070;-51
2022/08/17 16:42:23;;;;;;;17.58;4.82;;;33.80;87.30;;;;;;4931591;28;20042;-50
2022/08/17 16:45:35;;;;;;;19.58;4.90;;;33.80;88.80;;;;;;4930923;29;20521;-46
2022/08/17 16:48:39;;;;;;;15.82;4.65;;;33.90;88.80;;;;;;4930459;28;20038;-46
2022/08/17 16:51:42;;;;;;;17.88;4.82;;;33.70;89.00;;;;;;4931661;28;20054;-49
2022/08/17 16:54:46;;;;;;;18.23;5.07;;;33.60;89.40;;;;;;4931243;29;20047;-49
2022/08/17 16:57:51;;;;;;;16.33;4.65;;;33.40;89.70;;;;;;4931034;28;20051;-50
2022/08/17 17:00:58;;;;;;;16.90;5.03;;;33.10;90.30;;;;;;4931732;28;20058;-50
2022/08/17 17:04:23;;;;;;;19.38;5.72;;;32.90;90.90;;;;;;4931525;29;20431;-47
2022/08/17 17:07:52;;;;;;;18.92;4.72;;;32.70;91.20;;;;;;4931017;28;20047;-51
2022/08/17 17:10:57;;;;;;;20.05;4.97;;;32.50;91.80;;;;;;4931366;28;20047;-45
2022/08/17 17:14:22;;;;;;;18.05;4.88;;;32.50;92.30;;;;;;4931346;28;20509;-45
2022/08/17 17:17:35;;;;;;;16.85;5.40;;;32.40;92.60;;;;;;4931518;28;20050;-46
2022/08/17 17:20:52;;;;;;;15.50;5.60;;;32.20;92.80;;;;;;4932001;29;20110;-51
2022/08/17 17:24:02;;;;;;;17.48;5.05;;;32.00;93.20;;;;;;4930881;29;20043;-49
2022/08/17 17:27:28;;;;;;;16.35;5.68;;;31.80;93.60;;;;;;4931080;28;20046;-46
2022/08/17 17:30:52;;;;;;;20.95;5.85;;;31.50;94.00;;;;;;4931089;29;20118;-44
2022/08/17 17:34:02;;;;;;;27.95;6.35;;;30.90;94.90;;;;;;4931094;28;20047;-48
2022/08/17 17:37:14;;;;;;;24.15;5.50;;;30.40;95.90;;;;;;4930740;28;20042;-46
2022/08/17 17:41:03;;;;;;;18.70;5.43;;;30.20;96.90;;;;;;5007853;22;20040;-54
2022/08/17 17:44:11;;;;;;;20.20;6.90;;;29.90;97.30;;;;;;5070042;28;20516;-55
2022/08/17 17:47:53;;;;;;;17.85;5.10;;;29.80;98.00;;;;;;5070549;28;20052;-55
2022/08/17 17:51:15;;;;;;;20.15;5.40;;;29.60;98.20;;;;;;5070163;28;20036;-56
2022/08/17 17:54:44;;;;;;;24.60;6.15;;;29.40;98.30;;;;;;5070032;28;20402;-57
2022/08/17 18:01:53;;;;;;;22.33;6.00;;;29.00;99.40;;;;;;5069916;28;20047;-54
2022/08/17 18:05:07;;;;;;;18.30;5.72;;;28.80;99.60;;;;;;5070194;28;20048;-54
2022/08/17 18:08:29;;;;;;;24.05;5.70;;;28.70;99.90;;;;;;5070013;28;20043;-59
2022/08/17 18:11:52;;;;;;;25.88;6.13;;;28.50;99.90;;;;;;5070546;28;20399;-53
2022/08/17 18:15:02;;;;;;;16.33;5.95;;;28.40;99.90;;;;;;5069655;28;20407;-55
2022/08/17 18:18:13;;;;;;;21.60;5.50;;;28.40;99.90;;;;;;5069518;28;20043;-54
2022/08/17 18:21:20;;;;;;;15.40;4.95;;;28.30;99.90;;;;;;5070550;28;20043;-55
2022/08/17 18:24:44;;;;;;;20.30;5.38;;;28.10;99.90;;;;;;5070341;28;20094;-54
2022/08/17 18:28:07;;;;;;;20.15;5.57;;;28.10;99.90;;;;;;5070239;28;20050;-53
2022/08/17 18:31:30;;;;;;;20.23;5.90;;;28.00;99.90;;;;;;5070014;28;20130;-52
2022/08/17 18:34:34;;;;;;;22.27;5.32;;;27.90;99.90;;;;;;5069702;28;20043;-53